createdAt,value
2024-01-18T00:01:41.877Z,9.53
2024-01-18T00:12:07.279Z,6.94
2024-01-18T00:22:35.063Z,3.80
2024-01-18T00:33:02.251Z,2.14
2024-01-18T00:43:30.155Z,1.36
2024-01-18T00:53:55.346Z,1.04
2024-01-18T01:04:22.988Z,3.32
2024-01-18T01:14:48.494Z,6.57
2024-01-18T01:25:24.980Z,7.64
2024-01-18T01:35:51.196Z,7.92
2024-01-18T01:46:17.893Z,7.94
2024-01-18T01:56:46.325Z,7.17
2024-01-18T02:07:13.838Z,6.43
2024-01-18T02:17:39.632Z,6.81
2024-01-18T02:28:06.391Z,7.50
2024-01-18T02:38:33.602Z,7.83
2024-01-18T02:48:58.619Z,7.95
2024-01-18T02:59:22.532Z,8.07
2024-01-18T03:09:48.397Z,7.86
2024-01-18T03:20:15.503Z,7.67
2024-01-18T03:30:40.126Z,4.07
2024-01-18T03:41:06.367Z,2.64
2024-01-18T03:51:30.797Z,5.66
2024-01-18T04:01:58.875Z,6.76
2024-01-18T04:12:25.046Z,7.30
2024-01-18T04:22:50.078Z,7.23
2024-01-18T04:33:17.837Z,5.83
2024-01-18T04:43:43.928Z,2.30
2024-01-18T04:54:10.192Z,0.82
2024-01-18T05:04:35.819Z,2.78
2024-01-18T05:15:05.238Z,5.15
2024-01-18T05:25:30.754Z,5.57
2024-01-18T05:35:57.234Z,5.72
2024-01-18T05:46:28.212Z,5.78
2024-01-18T05:56:57.571Z,6.53
2024-01-18T06:07:41.896Z,6.69
2024-01-18T06:18:10.809Z,3.02
2024-01-18T06:28:38.263Z,0.99
2024-01-18T06:39:14.079Z,2.03
2024-01-18T06:49:40.893Z,4.86
2024-01-18T07:00:24.913Z,6.12
2024-01-18T07:11:00.263Z,7.06
2024-01-18T07:22:08.419Z,5.94
2024-01-18T07:34:56.300Z,1.86
2024-01-18T07:49:50.632Z,0.29
2024-01-18T08:14:37.790Z,6.63
2024-01-18T08:38:54.444Z,5.09
2024-01-18T09:02:47.101Z,0.54
2024-01-18T09:13:55.285Z,0.44
2024-01-18T09:26:00.792Z,0.64
2024-01-18T09:37:51.271Z,4.05
2024-01-18T09:49:02.154Z,7.31
2024-01-18T09:59:35.448Z,8.49
2024-01-18T10:10:04.794Z,7.05
2024-01-18T10:20:42.595Z,3.91
2024-01-18T10:31:13.790Z,2.41
2024-01-18T10:42:00.298Z,1.74
2024-01-18T10:53:01.005Z,1.46
2024-01-18T11:03:29.410Z,4.08
2024-01-18T11:13:55.036Z,7.10
2024-01-18T11:24:24.010Z,7.73
2024-01-18T11:35:10.404Z,7.93
2024-01-18T11:46:25.102Z,7.77
2024-01-18T11:57:24.020Z,4.48
2024-01-18T12:08:51.365Z,2.31
2024-01-18T12:19:53.505Z,1.06
2024-01-18T12:31:04.536Z,0.57
2024-01-18T12:42:15.336Z,0.55
2024-01-18T12:52:46.011Z,0.54
2024-01-18T13:04:11.419Z,0.51
2024-01-18T13:15:18.309Z,0.21
2024-01-18T13:27:17.556Z,0.11
2024-01-18T13:39:26.009Z,-0.18
2024-01-18T14:14:46.598Z,7.19
2024-01-18T14:27:23.583Z,7.49
2024-01-18T15:26:32.876Z,-0.33
2024-01-18T15:37:49.350Z,-0.40
2024-01-18T15:49:14.893Z,-0.47
2024-01-18T16:00:34.425Z,2.65
2024-01-18T16:11:58.164Z,5.31
2024-01-18T16:23:47.976Z,5.55
2024-01-18T16:35:19.647Z,5.49
2024-01-18T16:47:05.494Z,5.38
2024-01-18T17:00:34.973Z,3.59
2024-01-18T17:11:21.161Z,0.67
2024-01-18T17:22:52.090Z,3.12
2024-01-18T17:34:56.364Z,4.51
2024-01-18T17:47:22.154Z,4.67
2024-01-18T18:01:46.537Z,2.91
2024-01-18T18:14:11.904Z,3.59
2024-01-18T18:26:56.642Z,3.92
2024-01-18T18:40:03.032Z,4.05
2024-01-18T18:53:08.719Z,4.17
2024-01-18T19:06:15.687Z,4.05
2024-01-18T19:19:23.273Z,3.70
2024-01-18T20:07:21.278Z,2.72
2024-01-18T20:41:44.809Z,2.40
2024-01-18T20:54:04.558Z,3.27
2024-01-18T21:06:04.135Z,3.37
2024-01-18T21:18:28.676Z,3.31
2024-01-18T21:42:48.721Z,3.47
2024-01-18T22:18:12.169Z,3.34
2024-01-18T23:06:42.559Z,3.20
2024-01-18T23:31:57.945Z,3.19
2024-01-18T23:58:27.944Z,3.39
